Rechercher aéroport 
image banner adimage banner adimage banner ad
image banner ad

PS47 - Hamilton Hill

Situé à Ebensburg, United States

ICAO - PS47, IATA -

Données fournies par Airmate  

Information générale

Coordonnées: N40°25'40" W78°44'29"
Élévation : 2245 feet MSL.
Variation magnétique : -08° East
Voir autres Aéroports à Pennsylvania

Données opérationnelles

Special qualification required
Heure actuelle UTC:
Heure actuelle locale:
METAR: KJST 150654Z AUTO 30010KT 10SM CLR 14/12 A2989 RMK AO2 SLP108 T01390117
TAF: KJST 150548Z 1506/1606 30007KT 5SM BR SCT002 FM151300 32012G22KT P6SM VCSH BKN035 FM160200 31007KT P6SM SCT030
Voir NOTAMs / SUP AIP / TFR affectant cet aéroport [VIEW]
Fréquences de communication: [VIEW]

Pistes:

Identifiant RWYQFULongueur (ft)Largeur (ft)SurfaceLDA (ft)
10180060GRASS
28180060GRASS

Coordonnées de l'aéroport

Adresse: Ebensburg United States

Vue satellite de PS47